地図

経路データ

SID SEASON NUMBER BASIN SUBBASIN NAME ISO_TIME NATURE LAT LON WMO_WIND WMO_PRES WMO_AGENCY TRACK_TYPE DIST2LAND LANDFALL IFLAG USA_AGENCY USA_ATCF_ID USA_LAT USA_LON USA_RECORD USA_STATUS USA_WIND USA_PRES USA_SSHS USA_R34_NE USA_R34_SE USA_R34_SW USA_R34_NW USA_R50_NE USA_R50_SE USA_R50_SW USA_R50_NW USA_R64_NE USA_R64_SE USA_R64_SW USA_R64_NW USA_POCI USA_ROCI USA_RMW USA_EYE TOKYO_LAT TOKYO_LON TOKYO_GRADE TOKYO_WIND TOKYO_PRES TOKYO_R50_DIR TOKYO_R50_LONG TOKYO_R50_SHORT TOKYO_R30_DIR TOKYO_R30_LONG TOKYO_R30_SHORT TOKYO_LAND CMA_LAT CMA_LON CMA_CAT CMA_WIND CMA_PRES HKO_LAT HKO_LON HKO_CAT HKO_WIND HKO_PRES NEWDELHI_LAT NEWDELHI_LON NEWDELHI_GRADE NEWDELHI_WIND NEWDELHI_PRES NEWDELHI_CI NEWDELHI_DP NEWDELHI_POCI REUNION_LAT REUNION_LON REUNION_TYPE REUNION_WIND REUNION_PRES REUNION_TNUM REUNION_CI REUNION_RMW REUNION_R34_NE REUNION_R34_SE REUNION_R34_SW REUNION_R34_NW REUNION_R50_NE REUNION_R50_SE REUNION_R50_SW REUNION_R50_NW REUNION_R64_NE REUNION_R64_SE REUNION_R64_SW REUNION_R64_NW BOM_LAT BOM_LON BOM_TYPE BOM_WIND BOM_PRES BOM_TNUM BOM_CI BOM_RMW BOM_R34_NE BOM_R34_SE BOM_R34_SW BOM_R34_NW BOM_R50_NE BOM_R50_SE BOM_R50_SW BOM_R50_NW BOM_R64_NE BOM_R64_SE BOM_R64_SW BOM_R64_NW BOM_ROCI BOM_POCI BOM_EYE BOM_POS_METHOD BOM_PRES_METHOD NADI_LAT NADI_LON NADI_CAT NADI_WIND NADI_PRES WELLINGTON_LAT WELLINGTON_LON WELLINGTON_WIND WELLINGTON_PRES DS824_LAT DS824_LON DS824_STAGE DS824_WIND DS824_PRES TD9636_LAT TD9636_LON TD9636_STAGE TD9636_WIND TD9636_PRES TD9635_LAT TD9635_LON TD9635_WIND TD9635_PRES TD9635_ROCI NEUMANN_LAT NEUMANN_LON NEUMANN_CLASS NEUMANN_WIND NEUMANN_PRES MLC_LAT MLC_LON MLC_CLASS MLC_WIND MLC_PRES USA_GUST BOM_GUST BOM_GUST_PER REUNION_GUST REUNION_GUST_PER USA_SEAHGT USA_SEARAD_NE USA_SEARAD_SE USA_SEARAD_SW USA_SEARAD_NW STORM_SPEED STORM_DIR
1969149N12278 1969 29 NA CS NOT_NAMED 1969-05-29 00:00:00 TS 12.0000 -82.0000 25 hurdat_atl main 169 153 O_____________ hurdat_atl AL011969 12.0000 -82.0000 TD 25 -1 5 348
1969149N12278 1969 29 NA CS NOT_NAMED 1969-05-29 03:00:00 TS 12.2350 -82.0574 main 153 152 P_____________ AL011969 12.2350 -82.0574 TD 25 -1 5 349
1969149N12278 1969 29 NA CS NOT_NAMED 1969-05-29 06:00:00 TS 12.5000 -82.1000 25 hurdat_atl main 152 151 O_____________ hurdat_atl AL011969 12.5000 -82.1000 TD 25 -1 6 353
1969149N12278 1969 29 NA CS NOT_NAMED 1969-05-29 09:00:00 TS 12.8200 -82.1276 main 151 140 P_____________ AL011969 12.8200 -82.1276 TD 25 -1 7 352
1969149N12278 1969 29 NA CS NOT_NAMED 1969-05-29 12:00:00 TS 13.2000 -82.2000 25 hurdat_atl main 140 116 O_____________ hurdat_atl AL011969 13.2000 -82.2000 TD 25 -1 9 343
1969149N12278 1969 29 NA CS NOT_NAMED 1969-05-29 15:00:00 TS 13.6351 -82.3923 main 116 68 P_____________ AL011969 13.6351 -82.3923 TD 25 -1 10 337
1969149N12278 1969 29 NA CS NOT_NAMED 1969-05-29 18:00:00 TS 14.1000 -82.6000 25 hurdat_atl main 68 53 O_____________ hurdat_atl AL011969 14.1000 -82.6000 TD 25 -1 10 340
1969149N12278 1969 29 NA CS NOT_NAMED 1969-05-29 21:00:00 TS 14.5425 -82.7300 main 58 32 P_____________ AL011969 14.5425 -82.7300 TD 25 -1 9 348
1969149N12278 1969 29 NA CS NOT_NAMED 1969-05-30 00:00:00 TS 15.0000 -82.8000 25 hurdat_atl main 32 32 O_____________ hurdat_atl AL011969 15.0000 -82.8000 TD 25 -1 10 355
1969149N12278 1969 29 NA CS NOT_NAMED 1969-05-30 03:00:00 TS 15.4925 -82.8077 main 64 64 P_____________ AL011969 15.4925 -82.8077 TD 25 -1 10 1
1969149N12278 1969 29 NA CS NOT_NAMED 1969-05-30 06:00:00 TS 16.0000 -82.8000 25 hurdat_atl main 101 101 O_____________ hurdat_atl AL011969 16.0000 -82.8000 TD 25 -1 10 358
1969149N12278 1969 29 NA CS NOT_NAMED 1969-05-30 09:00:00 TS 16.5000 -82.8499 main 148 144 P_____________ AL011969 16.5000 -82.8499 TD 25 -1 10 354
1969149N12278 1969 29 NA CS NOT_NAMED 1969-05-30 12:00:00 TS 17.0000 -82.9000 25 hurdat_atl main 195 195 O_____________ hurdat_atl AL011969 17.0000 -82.9000 TD 25 -1 10 356
1969149N12278 1969 29 NA CS NOT_NAMED 1969-05-30 15:00:00 TS 17.5000 -82.9224 main 241 241 P_____________ AL011969 17.5000 -82.9224 TD 25 -1 10 1
1969149N12278 1969 29 NA CS NOT_NAMED 1969-05-30 18:00:00 TS 18.0000 -82.9000 25 hurdat_atl main 287 287 O_____________ hurdat_atl AL011969 18.0000 -82.9000 TD 25 -1 11 6
1969149N12278 1969 29 NA CS NOT_NAMED 1969-05-30 21:00:00 TS 18.5600 -82.8077 main 313 268 P_____________ AL011969 18.5600 -82.8077 TD 25 -1 10 11
1969149N12278 1969 29 NA CS NOT_NAMED 1969-05-31 00:00:00 TS 19.0000 -82.7000 25 hurdat_atl main 268 257 O_____________ hurdat_atl AL011969 19.0000 -82.7000 TD 25 -1 6 16
1969149N12278 1969 29 NA CS NOT_NAMED 1969-05-31 03:00:00 TS 19.1150 -82.6423 main 258 246 P_____________ AL011969 19.1150 -82.6423 TD 25 -1 2 27
1969149N12278 1969 29 NA CS NOT_NAMED 1969-05-31 06:00:00 TS 19.2000 -82.6000 25 hurdat_atl main 246 202 O_____________ hurdat_atl AL011969 19.2000 -82.6000 TD 25 -1 5 11
1969149N12278 1969 29 NA CS NOT_NAMED 1969-05-31 09:00:00 TS 19.5775 -82.5500 main 202 159 P_____________ AL011969 19.5775 -82.5500 TD 25 -1 8 7
1969149N12278 1969 29 NA CS NOT_NAMED 1969-05-31 12:00:00 TS 20.0000 -82.5000 25 hurdat_atl main 159 126 O_____________ hurdat_atl AL011969 20.0000 -82.5000 TD 25 -1 7 7
1969149N12278 1969 29 NA CS NOT_NAMED 1969-05-31 15:00:00 TS 20.2650 -82.4649 main 126 108 P_____________ AL011969 20.2650 -82.4649 TD 25 -1 5 11
1969149N12278 1969 29 NA CS NOT_NAMED 1969-05-31 18:00:00 TS 20.5000 -82.4000 25 hurdat_atl main 108 84 O_____________ hurdat_atl AL011969 20.5000 -82.4000 TD 25 -1 6 20
1969149N12278 1969 29 NA CS NOT_NAMED 1969-05-31 21:00:00 TS 20.8225 -82.2502 main 84 69 P_____________ AL011969 20.8225 -82.2502 TD 25 -1 7 25
1969149N12278 1969 29 NA CS NOT_NAMED 1969-06-01 00:00:00 TS 21.1000 -82.1000 25 hurdat_atl main 69 60 O_____________ hurdat_atl AL011969 21.1000 -82.1000 TD 25 -1 4 27
1969149N12278 1969 29 NA CS NOT_NAMED 1969-06-01 03:00:00 TS 21.2150 -82.0349 main 68 61 P_____________ AL011969 21.2150 -82.0349 TD 25 -1 2 27
1969149N12278 1969 29 NA CS NOT_NAMED 1969-06-01 06:00:00 TS 21.3000 -82.0000 25 hurdat_atl main 61 52 O_____________ hurdat_atl AL011969 21.3000 -82.0000 TD 25 -1 3 16
1969149N12278 1969 29 NA CS NOT_NAMED 1969-06-01 09:00:00 TS 21.4925 -81.9500 main 52 52 P_____________ AL011969 21.4925 -81.9500 TD 25 -1 4 13
1969149N12278 1969 29 NA CS NOT_NAMED 1969-06-01 12:00:00 TS 21.7000 -81.9000 25 hurdat_atl main 56 44 O_____________ hurdat_atl AL011969 21.7000 -81.9000 TD 25 -1 4 15
1969149N12278 1969 29 NA CS NOT_NAMED 1969-06-01 15:00:00 TS 21.8575 -81.8425 main 33 22 P_____________ AL011969 21.8575 -81.8425 TD 25 -1 3 17
1969149N12278 1969 29 NA CS NOT_NAMED 1969-06-01 18:00:00 TS 22.0000 -81.8000 25 hurdat_atl main 22 11 O_____________ hurdat_atl AL011969 22.0000 -81.8000 TD 25 -1 3 12
1969149N12278 1969 29 NA CS NOT_NAMED 1969-06-01 21:00:00 TS 22.1475 -81.7900 main 11 0 P_____________ AL011969 22.1475 -81.7900 TD 25 -1 3 0
1969149N12278 1969 29 NA NA NOT_NAMED 1969-06-02 00:00:00 TS 22.3000 -81.8000 25 hurdat_atl main 0 O_____________ hurdat_atl AL011969 22.3000 -81.8000 TD 25 -1 3 354

IBTrACS Databaseについて

本データベースは、米国NOAAが公開する1842年以降の世界の熱帯低気圧のベストトラックデータアーカイブInternational Best Track Archive for Climate Stewardship (IBTrACS)を、ウェブで閲覧しやすい形式に変換したものです。

最終更新日:2021-10-21